Time;durP1;ratioP1;P1;durP2;ratioP2;P2;SDS_P1;SDS_P2;PMS_P1;PMS_P2;Temp;Humidity;BMP_temperature;BMP_pressure;BME280_temperature;BME280_humidity;BME280_pressure;Samples;Min_cycle;Max_cycle;Signal;HPM_P1;HPM_P2
2022/01/21 00:04:26;;;;;;;1.00;1.00;;;;;;;0.60;88.54;100108.72;4923144;29;20071;-68
2022/01/21 00:06:52;;;;;;;1.25;1.15;;;;;;;0.50;90.06;100107.44;4915471;29;20059;-69
2022/01/21 00:09:17;;;;;;;1.50;1.50;;;;;;;0.65;88.58;100104.69;4915675;29;20035;-69
2022/01/21 00:11:42;;;;;;;2.00;1.90;;;;;;;0.61;90.04;100110.44;4915583;29;20016;-70
2022/01/21 00:14:09;;;;;;;0.85;0.85;;;;;;;0.70;90.83;100108.28;4915589;29;20039;-70
2022/01/21 00:16:38;;;;;;;0.85;0.85;;;;;;;0.51;90.35;100109.19;4915351;29;20028;-70
2022/01/21 00:19:10;;;;;;;0.70;0.70;;;;;;;0.48;90.02;100109.06;4915774;29;20409;-70
2022/01/21 00:30:12;;;;;;;0.60;0.60;;;;;;;-0.11;93.76;100114.00;4933763;29;20035;-69
2022/01/21 00:32:42;;;;;;;0.63;0.63;;;;;;;-0.08;93.53;100114.16;4929803;29;20047;-69
2022/01/21 00:35:07;;;;;;;6.30;1.85;;;;;;;-0.20;93.44;100121.22;4929859;29;20428;-68
2022/01/21 00:37:33;;;;;;;1.55;1.55;;;;;;;-0.30;94.20;100125.88;4937888;29;20024;-69
2022/01/21 00:40:00;;;;;;;0.70;0.70;;;;;;;-0.28;94.58;100126.84;4938041;29;20032;-71
2022/01/21 00:45:07;;;;;;;1.05;1.05;;;;;;;-0.27;94.18;100118.41;4937873;29;20400;-70
2022/01/21 00:47:33;;;;;;;1.70;1.33;;;;;;;-0.24;93.32;100126.97;4937627;29;20404;-70
2022/01/21 00:49:58;;;;;;;0.75;0.75;;;;;;;-0.27;93.24;100123.50;4937721;29;20046;-70
2022/01/21 00:52:23;;;;;;;1.83;1.77;;;;;;;-0.15;93.25;100132.50;4937916;29;20024;-70
2022/01/21 00:54:49;;;;;;;1.55;1.45;;;;;;;-0.29;93.60;100130.22;4937537;29;20028;-70
2022/01/21 00:57:14;;;;;;;0.85;0.85;;;;;;;-0.11;92.87;100129.28;4937574;29;20548;-70
2022/01/21 00:59:40;;;;;;;0.93;0.93;;;;;;;-0.19;92.94;100136.59;4937736;29;20426;-68
2022/01/21 05:16:07;;;;;;;1.20;1.20;;;;;;;-0.52;93.03;100236.03;5636620;23;20048;-67
2022/01/21 05:18:33;;;;;;;1.10;1.10;;;;;;;-0.78;94.20;100255.06;4918348;29;20111;-67
2022/01/21 05:20:59;;;;;;;1.10;1.10;;;;;;;-0.79;93.92;100253.31;4918561;29;20020;-67
2022/01/21 05:23:25;;;;;;;0.80;0.80;;;;;;;-0.85;94.28;100263.19;4918358;29;20032;-69
2022/01/21 05:25:51;;;;;;;1.08;1.08;;;;;;;-0.59;93.96;100251.75;4918133;29;20366;-69
2022/01/21 05:28:16;;;;;;;1.02;1.02;;;;;;;-0.29;91.93;100257.53;4918141;29;20039;-69
2022/01/21 05:30:41;;;;;;;1.42;1.42;;;;;;;-0.02;92.54;100259.66;4918783;29;20084;-67
2022/01/21 05:33:07;;;;;;;1.80;1.70;;;;;;;-0.18;91.01;100265.69;4925677;29;20665;-67
2022/01/21 05:35:32;;;;;;;1.05;1.05;;;;;;;-0.26;90.22;100265.28;4930818;29;20532;-69
2022/01/21 05:37:58;;;;;;;0.68;0.68;;;;;;;-0.18;90.09;100269.91;4936918;29;20481;-70
2022/01/21 05:40:24;;;;;;;0.70;0.70;;;;;;;-0.16;89.13;100269.16;4936970;29;20074;-68
2022/01/21 05:42:50;;;;;;;0.80;0.80;;;;;;;-0.04;91.36;100263.81;4936836;29;20473;-68
2022/01/21 05:47:59;;;;;;;0.70;0.70;;;;;;;-0.32;90.86;100271.78;4937009;29;20039;-67
2022/01/21 05:50:24;;;;;;;0.93;0.93;;;;;;;-0.21;91.70;100264.66;4936783;29;20036;-69
2022/01/21 05:52:50;;;;;;;1.17;1.17;;;;;;;-0.26;92.13;100267.84;4936722;29;20019;-69
2022/01/21 05:55:17;;;;;;;2.40;2.25;;;;;;;-0.13;91.30;100264.22;4936640;29;20055;-69
2022/01/21 05:57:43;;;;;;;0.80;0.80;;;;;;;-0.29;90.33;100265.16;4936522;29;20078;-70
2022/01/21 06:00:10;;;;;;;1.88;1.77;;;;;;;-0.34;90.68;100258.97;4936973;29;20086;-70
2022/01/21 06:02:37;;;;;;;1.50;1.05;;;;;;;-0.19;92.42;100260.50;4934153;29;20084;-68
2022/01/21 06:05:04;;;;;;;5.70;3.17;;;;;;;-0.35;91.77;100269.94;4928571;29;20040;-69
2022/01/21 06:07:29;;;;;;;2.17;2.08;;;;;;;-0.31;92.04;100274.38;4936452;29;20028;-67
2022/01/21 06:09:55;;;;;;;2.83;2.63;;;;;;;-0.54;92.14;100285.09;4936367;29;20532;-67
2022/01/21 06:12:20;;;;;;;2.05;1.95;;;;;;;-0.20;91.70;100282.53;4936295;29;20019;-67
2022/01/21 06:14:45;;;;;;;7.88;1.63;;;;;;;0.22;90.86;100283.75;4936037;29;20074;-67
2022/01/21 06:17:12;;;;;;;1.23;1.23;;;;;;;0.30;89.73;100279.03;4935876;29;20409;-66
2022/01/21 06:19:37;;;;;;;0.70;0.70;;;;;;;0.28;88.07;100292.47;4933110;29;20393;-69
2022/01/21 06:22:03;;;;;;;2.58;1.42;;;;;;;0.29;87.66;100290.03;4926972;29;20020;-69
2022/01/21 06:24:28;;;;;;;2.88;1.52;;;;;;;0.23;87.47;100290.59;4917274;29;20032;-69
2022/01/21 06:26:59;;;;;;;1.90;1.80;;;;;;;0.24;87.58;100296.56;4916471;29;20028;-69
2022/01/21 06:29:24;;;;;;;2.72;1.92;;;;;;;0.08;87.36;100304.28;4923861;29;20035;-69
2022/01/21 06:31:49;;;;;;;1.52;1.42;;;;;;;0.05;88.70;100309.22;4916906;29;20401;-69
2022/01/21 06:34:15;;;;;;;1.92;1.83;;;;;;;0.12;87.88;100322.34;4927345;29;20024;-69
2022/01/21 06:36:40;;;;;;;0.88;0.80;;;;;;;-0.14;89.07;100312.56;4935662;29;20124;-69
2022/01/21 06:39:05;;;;;;;2.97;1.65;;;;;;;-0.22;89.46;100322.34;4935894;29;20027;-69
2022/01/21 06:41:32;;;;;;;1.48;1.48;;;;;;;-0.05;89.51;100323.19;4935689;29;20090;-70
2022/01/21 06:43:57;;;;;;;4.85;2.85;;;;;;;-0.05;88.91;100323.19;4935758;29;20046;-69
2022/01/21 06:46:22;;;;;;;2.08;1.75;;;;;;;0.00;88.13;100326.84;4935710;29;20024;-69
2022/01/21 06:48:48;;;;;;;5.07;1.88;;;;;;;0.20;87.63;100326.16;4935881;29;20485;-69
2022/01/21 06:51:13;;;;;;;1.33;1.33;;;;;;;0.28;87.40;100328.16;4935728;29;20027;-69
2022/01/21 06:53:38;;;;;;;3.65;3.38;;;;;;;0.24;88.48;100327.13;4935997;29;20031;-69
2022/01/21 06:56:04;;;;;;;3.60;3.20;;;;;;;0.23;89.01;100323.72;4935774;29;20387;-67
2022/01/21 06:58:29;;;;;;;1.92;1.83;;;;;;;0.20;88.54;100321.03;4931380;29;20488;-67
2022/01/21 07:00:54;;;;;;;0.95;0.95;;;;;;;0.21;88.63;100322.78;4918940;29;20026;-67
2022/01/21 07:03:20;;;;;;;1.73;1.63;;;;;;;0.09;87.95;100326.41;4914198;29;20058;-69
2022/01/21 07:05:46;;;;;;;0.82;0.82;;;;;;;0.15;89.11;100332.69;4920773;29;20110;-69
2022/01/21 07:08:14;;;;;;;1.77;1.70;;;;;;;0.10;89.13;100328.19;4917735;29;20165;-69
2022/01/21 07:10:40;;;;;;;3.55;2.28;;;;;;;0.11;88.55;100330.78;4935302;29;20412;-69
2022/01/21 07:13:05;;;;;;;3.97;2.50;;;;;;;0.19;88.69;100318.41;4935272;29;20031;-69
2022/01/21 07:18:52;;;;;;;6.57;4.13;;;;;;;0.05;89.06;100325.41;4934976;29;20038;-68
2022/01/21 07:21:18;;;;;;;4.38;2.55;;;;;;;0.10;89.04;100329.06;4935216;29;20024;-70
2022/01/21 07:23:43;;;;;;;5.25;2.95;;;;;;;0.14;89.18;100330.91;4935164;29;20115;-70
2022/01/21 07:26:09;;;;;;;6.65;2.63;;;;;;;0.36;90.25;100331.97;4934916;29;20035;-70
2022/01/21 07:28:34;;;;;;;5.30;4.25;;;;;;;0.17;89.13;100336.19;4935020;29;20034;-70
2022/01/21 07:31:00;;;;;;;7.03;5.55;;;;;;;0.31;88.34;100329.19;4935075;29;20520;-70
2022/01/21 07:33:25;;;;;;;7.35;3.47;;;;;;;0.15;88.73;100327.59;4932445;29;20035;-70
2022/01/21 07:35:51;;;;;;;3.83;3.53;;;;;;;0.20;89.02;100328.69;4919522;29;20056;-70
2022/01/21 07:38:16;;;;;;;2.67;2.35;;;;;;;0.12;88.78;100329.97;4923652;29;20451;-70
2022/01/21 07:40:42;;;;;;;10.35;3.15;;;;;;;0.11;89.67;100328.25;4929082;29;20477;-69
2022/01/21 07:43:07;;;;;;;7.90;2.45;;;;;;;0.52;89.47;100326.78;4934846;29;20221;-70
2022/01/21 07:45:33;;;;;;;1.20;1.20;;;;;;;0.59;88.07;100333.94;4934739;29;20038;-69
2022/01/21 07:47:59;;;;;;;8.52;2.63;;;;;;;0.67;86.57;100344.47;4934800;29;20504;-71
2022/01/21 07:50:24;;;;;;;5.70;3.92;;;;;;;0.67;85.95;100340.25;4934853;29;20059;-70
2022/01/21 07:52:49;;;;;;;1.90;1.80;;;;;;;0.71;86.16;100337.03;4934848;29;20114;-68
2022/01/21 07:55:15;;;;;;;2.05;1.85;;;;;;;0.44;86.23;100346.84;4934659;29;20114;-69
2022/01/21 07:57:40;;;;;;;1.05;1.05;;;;;;;0.62;86.60;100341.72;4934665;29;20055;-68
2022/01/21 08:00:07;;;;;;;4.75;2.97;;;;;;;0.56;86.27;100335.47;4934592;29;20031;-68
2022/01/21 08:02:33;;;;;;;3.60;2.08;;;;;;;0.79;84.97;100339.09;4932153;29;20086;-68
2022/01/21 08:05:01;;;;;;;0.98;0.98;;;;;;;0.59;84.89;100341.59;4926876;29;20032;-67
2022/01/21 08:07:27;;;;;;;1.08;1.08;;;;;;;0.75;85.75;100349.13;4927733;29;20032;-67
2022/01/21 08:09:53;;;;;;;4.22;1.30;;;;;;;1.00;84.91;100345.16;4923350;29;20062;-67
2022/01/21 08:12:19;;;;;;;1.00;1.00;;;;;;;1.26;85.30;100341.25;4915625;29;20107;-67
2022/01/21 08:14:45;;;;;;;1.52;1.42;;;;;;;1.26;83.69;100338.69;4915750;29;20088;-66
2022/01/21 08:17:10;;;;;;;1.58;1.52;;;;;;;1.35;83.54;100338.19;4915248;29;20032;-69
2022/01/21 08:19:35;;;;;;;1.83;1.73;;;;;;;1.46;83.23;100342.97;4915637;29;20024;-68
2022/01/21 08:22:01;;;;;;;2.75;1.35;;;;;;;1.73;83.32;100338.16;4915461;29;20032;-68
2022/01/21 08:24:26;;;;;;;1.58;1.48;;;;;;;1.70;82.69;100338.06;4915551;29;20036;-68
2022/01/21 08:26:52;;;;;;;1.20;1.20;;;;;;;1.63;80.89;100340.28;4915228;29;20024;-69
2022/01/21 08:29:17;;;;;;;1.88;1.75;;;;;;;1.60;81.18;100325.69;4915987;29;20032;-69
2022/01/21 08:31:43;;;;;;;0.63;0.63;;;;;;;1.45;82.22;100335.22;4915617;29;20023;-68
2022/01/21 08:34:08;;;;;;;3.60;2.25;;;;;;;1.56;82.98;100339.16;4924895;29;20028;-69
2022/01/21 08:36:34;;;;;;;1.45;1.35;;;;;;;1.49;82.26;100337.13;4934135;29;20261;-69
2022/01/21 08:38:59;;;;;;;0.75;0.75;;;;;;;1.88;81.49;100331.97;4923688;29;20156;-69
2022/01/21 08:41:25;;;;;;;1.08;0.90;;;;;;;1.96;79.64;100336.59;4934345;29;20118;-69
2022/01/21 08:43:50;;;;;;;0.60;0.60;;;;;;;2.03;80.58;100335.13;4934302;29;20032;-69
2022/01/21 08:46:15;;;;;;;13.07;1.50;;;;;;;1.92;79.99;100349.16;4934166;29;20024;-68
2022/01/21 08:48:41;;;;;;;1.35;1.35;;;;;;;1.92;78.86;100354.28;4934374;29;20537;-68
2022/01/21 08:51:11;;;;;;;0.60;0.60;;;;;;;1.82;79.44;100350.47;4935892;29;20027;-69
2022/01/21 08:53:38;;;;;;;1.60;1.50;;;;;;;1.95;79.63;100359.53;4937844;29;20027;-68
2022/01/21 08:56:06;;;;;;;1.50;1.33;;;;;;;1.99;79.76;100366.53;4936378;29;20035;-68
2022/01/21 08:58:32;;;;;;;2.83;1.48;;;;;;;2.21;80.52;100371.69;4937604;29;20028;-69
2022/01/21 09:00:57;;;;;;;0.68;0.68;;;;;;;2.09;79.10;100367.78;4937814;29;20457;-69
2022/01/21 09:03:23;;;;;;;0.95;0.95;;;;;;;2.17;78.00;100364.72;4931269;29;20506;-69
2022/01/21 09:05:50;;;;;;;1.27;1.27;;;;;;;2.14;78.72;100367.16;4933324;29;20031;-69
2022/01/21 09:08:23;;;;;;;1.80;1.25;;;;;;;2.19;78.88;100370.78;4931772;29;20056;-69
2022/01/21 09:10:51;;;;;;;1.88;1.63;;;;;;;2.15;78.42;100366.34;4933324;29;20091;-68
2022/01/21 09:13:17;;;;;;;1.63;1.53;;;;;;;2.30;77.38;100364.41;4937476;29;20051;-67
2022/01/21 09:15:42;;;;;;;1.00;1.00;;;;;;;2.28;77.36;100365.16;4937305;29;20134;-67
2022/01/21 09:18:08;;;;;;;4.32;1.23;;;;;;;2.41;77.29;100361.41;4937342;29;20126;-67
2022/01/21 09:20:36;;;;;;;10.13;1.73;;;;;;;2.54;76.97;100368.75;4937471;29;20040;-68
2022/01/21 09:23:03;;;;;;;1.65;1.38;;;;;;;2.40;75.29;100369.91;4937087;29;20023;-67
2022/01/21 09:25:29;;;;;;;1.02;1.00;;;;;;;2.23;76.74;100367.53;4937084;29;20039;-67
2022/01/21 09:27:54;;;;;;;2.00;1.90;;;;;;;2.18;77.71;100370.72;4937043;29;20023;-67
2022/01/21 09:30:20;;;;;;;1.20;1.20;;;;;;;2.15;76.01;100374.00;4937314;29;20024;-67
2022/01/21 09:32:45;;;;;;;0.70;0.70;;;;;;;2.21;76.43;100378.50;4934963;29;20376;-67
2022/01/21 09:35:11;;;;;;;1.95;1.48;;;;;;;2.09;77.16;100381.44;4928854;29;20042;-67
2022/01/21 09:37:37;;;;;;;1.10;1.10;;;;;;;2.19;75.89;100380.13;4933869;29;20099;-67
2022/01/21 09:40:05;;;;;;;1.42;1.35;;;;;;;2.22;76.66;100376.00;4929243;29;20106;-67
2022/01/21 09:42:35;;;;;;;1.50;1.42;;;;;;;2.28;77.72;100386.50;4936762;29;20024;-68
2022/01/21 09:45:08;;;;;;;0.90;0.90;;;;;;;2.43;76.64;100390.50;4936762;29;20031;-67
2022/01/21 09:47:44;;;;;;;1.35;1.35;;;;;;;2.34;76.99;100396.09;4936581;29;20111;-67
2022/01/21 09:50:10;;;;;;;1.00;1.00;;;;;;;2.29;77.57;100393.34;4936638;29;20039;-67
2022/01/21 09:52:37;;;;;;;3.22;1.35;;;;;;;2.27;77.74;100389.88;4936977;29;20020;-68
2022/01/21 09:55:04;;;;;;;0.90;0.90;;;;;;;2.45;76.38;100387.16;4936684;29;20020;-68
2022/01/21 09:57:30;;;;;;;0.90;0.90;;;;;;;2.54;75.36;100381.56;4936846;29;20396;-68
2022/01/21 09:59:55;;;;;;;1.20;1.20;;;;;;;2.58;74.82;100375.75;4936677;29;20110;-68
2022/01/21 10:02:26;;;;;;;1.45;1.45;;;;;;;2.69;75.66;100373.59;4933116;29;20047;-68
2022/01/21 10:04:52;;;;;;;2.38;1.67;;;;;;;2.95;75.08;100378.06;4928540;29;20039;-68
2022/01/21 10:07:20;;;;;;;1.10;1.00;;;;;;;3.31;71.31;100393.94;4933306;29;20370;-68
2022/01/21 10:09:47;;;;;;;2.28;1.50;;;;;;;2.81;74.10;100392.88;4928571;29;20028;-68
2022/01/21 10:12:14;;;;;;;5.47;2.25;;;;;;;3.18;72.94;100407.09;4936490;29;20055;-68
2022/01/21 10:14:40;;;;;;;1.88;1.77;;;;;;;2.68;74.95;100413.69;4936532;29;20235;-68
2022/01/21 10:17:06;;;;;;;2.97;2.50;;;;;;;2.46;76.75;100417.03;4935967;29;20482;-67
2022/01/21 10:19:33;;;;;;;1.73;1.63;;;;;;;2.55;75.04;100414.00;4936227;29;20061;-67
2022/01/21 10:21:59;;;;;;;0.98;0.88;;;;;;;2.64;76.16;100411.81;4936301;29;20034;-67
2022/01/21 10:24:24;;;;;;;0.90;0.90;;;;;;;2.47;76.53;100423.06;4936139;29;20043;-68
2022/01/21 10:26:52;;;;;;;1.13;1.13;;;;;;;2.47;76.94;100416.25;4935791;29;20024;-68
2022/01/21 10:29:18;;;;;;;1.13;1.02;;;;;;;2.50;78.23;100423.16;4936163;29;20028;-68
2022/01/21 10:31:58;;;;;;;2.10;0.70;;;;;;;2.40;76.38;100426.16;4935088;29;20035;-68
2022/01/21 10:34:33;;;;;;;1.08;0.93;;;;;;;2.64;76.94;100416.06;4924787;29;20024;-68
2022/01/21 10:37:06;;;;;;;1.15;1.15;;;;;;;2.68;76.68;100420.50;4917247;29;20036;-68
2022/01/21 10:39:34;;;;;;;1.45;1.45;;;;;;;2.80;75.33;100411.63;4928068;29;20032;-73
2022/01/21 10:42:01;;;;;;;0.90;0.90;;;;;;;2.70;75.14;100406.94;4935812;29;20027;-65
2022/01/21 10:44:30;;;;;;;0.88;0.88;;;;;;;2.64;74.06;100401.56;4950449;29;20032;-65
2022/01/21 10:47:04;;;;;;;7.23;1.03;;;;;;;2.60;75.49;100394.59;4935578;29;20030;-66
2022/01/21 10:49:30;;;;;;;3.30;1.30;;;;;;;2.93;74.57;100394.16;4935886;29;20334;-66
2022/01/21 10:51:55;;;;;;;1.10;1.10;;;;;;;3.11;73.46;100394.88;4935761;29;20027;-65
2022/01/21 10:54:26;;;;;;;1.73;1.63;;;;;;;3.00;73.79;100393.59;4935990;29;20031;-65
2022/01/21 10:57:10;;;;;;;1.42;1.00;;;;;;;3.27;73.96;100394.63;4935362;29;20169;-65
2022/01/21 10:59:55;;;;;;;1.80;1.70;;;;;;;3.57;71.64;100391.44;4935608;29;20079;-65
2022/01/21 11:02:53;;;;;;;2.28;1.60;;;;;;;3.27;72.38;100389.50;4933314;29;20079;-65
2022/01/21 11:05:24;;;;;;;1.55;1.50;;;;;;;3.20;72.77;100389.25;4927372;29;20118;-66
2022/01/21 11:07:57;;;;;;;0.77;0.77;;;;;;;3.24;72.41;100389.41;4932489;29;20122;-66
2022/01/21 11:10:32;;;;;;;1.73;1.63;;;;;;;3.21;71.74;100380.72;4921177;29;20189;-66
2022/01/21 11:12:58;;;;;;;0.77;0.77;;;;;;;2.86;73.13;100381.97;4916211;29;20080;-65
2022/01/21 11:15:24;;;;;;;4.43;1.65;;;;;;;2.99;73.35;100387.59;4915430;29;20027;-66
2022/01/21 11:18:02;;;;;;;1.50;1.40;;;;;;;2.97;73.23;100385.78;4923034;29;20039;-65
2022/01/21 11:20:35;;;;;;;1.10;0.85;;;;;;;2.83;72.40;100378.44;4897465;29;20033;-65
2022/01/21 11:23:01;;;;;;;0.57;0.57;;;;;;;3.05;72.78;100379.28;4909779;29;20031;-66
2022/01/21 11:25:45;;;;;;;2.63;2.10;;;;;;;2.96;72.20;100378.94;4916014;29;20028;-66
2022/01/21 11:28:22;;;;;;;1.15;1.15;;;;;;;2.95;72.79;100382.28;4916062;29;20024;-65
2022/01/21 11:30:48;;;;;;;3.35;2.47;;;;;;;3.05;72.60;100377.59;4916646;29;20035;-66
2022/01/21 11:33:14;;;;;;;2.08;1.42;;;;;;;3.07;72.51;100377.66;4918045;29;20020;-66
2022/01/21 11:35:40;;;;;;;5.18;1.10;;;;;;;2.81;72.80;100374.97;4921736;29;20030;-66
2022/01/21 11:38:11;;;;;;;7.72;1.48;;;;;;;2.78;73.84;100372.28;4934876;29;20388;-66
2022/01/21 11:40:37;;;;;;;1.08;1.08;;;;;;;3.20;71.97;100368.75;4934884;29;20028;-66
2022/01/21 11:43:05;;;;;;;1.25;1.17;;;;;;;3.25;71.87;100362.97;4934860;29;20091;-66
2022/01/21 11:45:53;;;;;;;1.10;1.10;;;;;;;3.12;73.44;100365.88;4934747;29;20036;-66
2022/01/21 11:50:49;;;;;;;3.58;1.45;;;;;;;2.91;72.15;100372.78;4934873;29;20031;-68
2022/01/21 11:53:35;;;;;;;1.90;1.10;;;;;;;2.98;71.66;100372.19;4934804;29;20048;-68
2022/01/21 11:56:00;;;;;;;1.60;1.13;;;;;;;2.77;73.74;100370.53;4922472;29;20028;-68
2022/01/21 11:58:26;;;;;;;1.25;1.25;;;;;;;2.87;73.27;100373.47;4927660;29;20439;-70
2022/01/21 12:00:53;;;;;;;0.80;0.80;;;;;;;2.93;72.01;100366.00;4934947;29;20066;-67
2022/01/21 12:03:21;;;;;;;0.88;0.88;;;;;;;2.80;73.38;100362.09;4928992;29;20028;-67
2022/01/21 12:05:47;;;;;;;0.52;0.52;;;;;;;3.03;71.97;100358.72;4929826;29;20038;-67
2022/01/21 12:08:13;;;;;;;1.35;1.35;;;;;;;2.89;71.89;100359.03;4934703;29;20040;-67
2022/01/21 12:10:43;;;;;;;0.63;0.63;;;;;;;3.02;72.14;100351.00;4934722;29;20123;-67
2022/01/21 12:13:21;;;;;;;1.45;1.08;;;;;;;2.92;71.84;100346.34;4934783;29;20023;-68
2022/01/21 12:21:26;;;;;;;2.03;1.88;;;;;;;2.82;73.02;100342.56;4947027;29;20460;-69
2022/01/21 12:23:52;;;;;;;0.70;0.70;;;;;;;2.73;73.71;100345.66;4934636;29;20028;-68
2022/01/21 12:26:19;;;;;;;0.70;0.70;;;;;;;2.62;72.89;100330.69;4930929;29;20103;-68
2022/01/21 12:29:13;;;;;;;1.05;1.05;;;;;;;2.76;74.29;100335.53;4933621;29;20079;-68
2022/01/21 12:31:55;;;;;;;1.00;1.00;;;;;;;2.89;72.99;100341.97;4937751;29;20515;-68
2022/01/21 12:34:21;;;;;;;0.65;0.65;;;;;;;3.09;72.47;100330.81;4926933;29;20478;-68
2022/01/21 12:36:57;;;;;;;4.70;3.17;;;;;;;3.45;73.68;100340.63;4918895;29;20038;-68
2022/01/21 12:39:36;;;;;;;1.20;0.90;;;;;;;3.66;71.15;100330.25;4919198;29;20038;-68
2022/01/21 12:42:19;;;;;;;0.60;0.60;;;;;;;3.77;71.08;100334.09;4919018;29;20051;-68
2022/01/21 12:44:45;;;;;;;2.72;0.98;;;;;;;3.46;71.44;100336.38;4919070;29;20063;-68
2022/01/21 12:47:40;;;;;;;0.98;0.98;;;;;;;3.35;71.15;100344.56;4918755;29;20512;-68
2022/01/21 12:50:30;;;;;;;9.20;0.80;;;;;;;3.15;72.00;100340.41;4919761;29;20031;-68
2022/01/21 12:53:15;;;;;;;1.20;1.20;;;;;;;2.90;73.46;100342.84;4929943;29;20197;-66
2022/01/21 12:55:58;;;;;;;6.10;3.58;;;;;;;2.72;72.95;100343.91;4918704;29;20397;-65
2022/01/21 12:58:29;;;;;;;0.85;0.85;;;;;;;2.65;73.41;100341.91;4919007;29;20028;-66
2022/01/21 13:00:56;;;;;;;0.60;0.60;;;;;;;2.62;73.47;100354.59;4918750;29;20039;-65
2022/01/21 13:03:22;;;;;;;0.73;0.73;;;;;;;2.40;74.09;100345.19;4923276;29;20062;-65
2022/01/21 13:06:00;;;;;;;0.57;0.57;;;;;;;2.44;74.29;100351.31;4929445;29;20497;-65
2022/01/21 13:08:39;;;;;;;0.95;0.95;;;;;;;2.47;75.98;100354.00;4937562;29;20031;-66
2022/01/21 13:11:18;;;;;;;0.50;0.50;;;;;;;2.34;77.22;100349.19;4937673;29;20034;-65
2022/01/21 13:13:50;;;;;;;0.50;0.50;;;;;;;2.47;78.42;100342.09;4937591;29;20602;-65
2022/01/21 13:16:25;;;;;;;1.40;1.20;;;;;;;2.43;78.14;100341.91;4937252;29;20437;-66
2022/01/21 13:18:59;;;;;;;2.05;1.15;;;;;;;2.47;78.83;100349.75;4937240;29;20119;-66
2022/01/21 13:21:24;;;;;;;8.85;1.13;;;;;;;2.42;76.57;100352.91;4937366;29;20063;-66
2022/01/21 13:23:59;;;;;;;0.60;0.60;;;;;;;2.59;77.98;100344.22;4937259;29;20058;-65
2022/01/21 13:26:28;;;;;;;1.05;1.02;;;;;;;2.50;77.74;100348.97;4937171;29;20024;-66
2022/01/21 13:29:07;;;;;;;1.25;1.15;;;;;;;2.44;76.74;100349.63;4937227;29;20027;-65
2022/01/21 13:31:36;;;;;;;0.88;0.68;;;;;;;2.46;76.50;100359.91;4928319;29;20040;-65
2022/01/21 13:34:13;;;;;;;1.20;1.02;;;;;;;2.65;76.17;100352.13;4924423;29;20111;-65
2022/01/21 13:36:45;;;;;;;4.20;2.50;;;;;;;2.67;76.77;100344.53;4936852;29;20434;-66
2022/01/21 13:39:17;;;;;;;0.70;0.70;;;;;;;2.73;75.32;100350.75;4923860;29;20038;-65
2022/01/21 13:41:54;;;;;;;0.75;0.75;;;;;;;2.78;74.58;100345.81;4917857;29;20027;-65
2022/01/21 13:44:43;;;;;;;0.60;0.60;;;;;;;2.97;74.48;100335.47;4918251;29;20039;-65
2022/01/21 13:47:48;;;;;;;0.90;0.90;;;;;;;3.18;73.15;100343.06;4914725;29;20044;-65
2022/01/21 13:50:23;;;;;;;0.60;0.60;;;;;;;3.37;73.90;100341.16;4916916;29;20115;-67
2022/01/21 13:53:09;;;;;;;1.83;1.25;;;;;;;3.43;73.03;100344.81;4925716;29;20028;-68
2022/01/21 13:55:42;;;;;;;0.80;0.80;;;;;;;3.15;72.69;100340.41;4901215;29;20047;-67
2022/01/21 13:58:10;;;;;;;0.50;0.50;;;;;;;3.07;73.40;100336.69;4925338;29;20039;-67
2022/01/21 14:00:41;;;;;;;0.90;0.90;;;;;;;3.03;73.28;100339.94;4917559;29;20024;-67
2022/01/21 14:03:11;;;;;;;1.75;1.27;;;;;;;2.86;73.43;100338.44;4918198;29;20024;-67
2022/01/21 14:05:51;;;;;;;0.70;0.70;;;;;;;2.95;73.39;100338.75;4936335;29;20118;-68
2022/01/21 14:08:38;;;;;;;0.60;0.60;;;;;;;2.95;73.07;100346.44;4936417;29;20020;-67
2022/01/21 14:11:11;;;;;;;0.80;0.80;;;;;;;3.06;74.10;100340.06;4936270;29;20034;-69
2022/01/21 14:13:39;;;;;;;0.68;0.68;;;;;;;2.97;74.43;100344.84;4936465;29;20083;-68
2022/01/21 14:16:08;;;;;;;7.93;0.80;;;;;;;2.92;73.60;100351.47;4935767;29;20032;-67
2022/01/21 14:18:37;;;;;;;0.85;0.85;;;;;;;2.81;75.26;100345.94;4935097;29;20023;-68
2022/01/21 14:21:15;;;;;;;0.47;0.47;;;;;;;2.81;74.77;100339.13;4936055;29;20058;-67
2022/01/21 14:23:42;;;;;;;1.30;1.20;;;;;;;2.72;73.86;100341.34;4932016;29;20374;-67
2022/01/21 14:26:15;;;;;;;0.60;0.60;;;;;;;2.66;75.01;100338.56;4918573;29;20032;-66
2022/01/21 14:28:43;;;;;;;1.25;1.25;;;;;;;2.82;74.81;100338.31;4921923;29;20118;-66
2022/01/21 14:31:38;;;;;;;0.60;0.60;;;;;;;2.84;73.73;100341.78;4926206;29;20355;-66
2022/01/21 14:34:19;;;;;;;1.65;1.00;;;;;;;2.98;74.05;100341.47;4922474;29;20027;-66
2022/01/21 14:37:01;;;;;;;2.70;2.58;;;;;;;2.84;74.35;100340.94;4921375;29;20028;-66
2022/01/21 14:39:27;;;;;;;0.75;0.75;;;;;;;2.80;74.50;100339.97;4916880;29;20028;-66
2022/01/21 14:41:56;;;;;;;0.60;0.60;;;;;;;2.71;74.07;100337.06;4916580;29;20032;-66
2022/01/21 14:44:41;;;;;;;1.02;1.02;;;;;;;2.56;74.45;100346.66;4916662;29;20486;-66
2022/01/21 14:47:08;;;;;;;1.65;1.55;;;;;;;2.61;75.46;100340.06;4916130;29;20041;-66
2022/01/21 14:49:34;;;;;;;1.27;1.27;;;;;;;2.66;75.57;100348.78;4916189;29;20032;-68
2022/01/21 14:54:43;;;;;;;0.80;0.80;;;;;;;2.66;74.96;100360.69;4916443;29;20034;-67
2022/01/21 14:57:09;;;;;;;1.38;1.33;;;;;;;2.55;75.66;100357.72;4924778;29;20023;-67
2022/01/21 14:59:34;;;;;;;0.65;0.65;;;;;;;2.66;75.01;100361.59;4935286;29;20142;-67
2022/01/21 15:02:09;;;;;;;0.63;0.63;;;;;;;2.66;74.47;100364.16;4932492;29;20452;-67
2022/01/21 15:04:38;;;;;;;0.60;0.60;;;;;;;2.64;75.51;100364.88;4927334;29;20504;-67
2022/01/21 15:07:23;;;;;;;0.82;0.82;;;;;;;2.67;75.42;100354.78;4934849;29;20118;-67
2022/01/21 15:09:51;;;;;;;7.20;1.77;;;;;;;2.56;75.96;100356.88;4935155;29;20512;-67
2022/01/21 15:15:32;;;;;;;2.35;1.02;;;;;;;2.71;76.53;100347.28;4935141;29;20078;-67
2022/01/21 15:17:59;;;;;;;0.80;0.80;;;;;;;2.62;76.58;100346.91;4935085;29;20019;-67
2022/01/21 15:20:32;;;;;;;1.38;1.27;;;;;;;2.66;76.13;100337.66;4923694;29;20035;-67
2022/01/21 15:22:58;;;;;;;2.50;1.70;;;;;;;2.45;76.75;100338.56;4915758;29;20478;-67
2022/01/21 15:25:24;;;;;;;3.03;1.45;;;;;;;2.54;76.70;100343.19;4915937;29;20115;-67
2022/01/21 15:27:50;;;;;;;1.42;1.00;;;;;;;2.64;76.04;100340.16;4921757;29;20448;-67
2022/01/21 15:30:17;;;;;;;2.45;2.25;;;;;;;2.67;75.71;100344.53;4934920;29;20279;-67
2022/01/21 15:32:43;;;;;;;1.02;0.98;;;;;;;2.74;76.15;100347.38;4932315;29;20061;-67
2022/01/21 15:35:09;;;;;;;1.15;1.13;;;;;;;2.52;76.11;100345.69;4920913;29;20589;-67
2022/01/21 15:37:35;;;;;;;1.80;1.70;;;;;;;2.59;76.38;100344.22;4934592;29;20031;-67
2022/01/21 15:40:01;;;;;;;0.70;0.70;;;;;;;2.48;76.48;100350.63;4934732;29;20389;-67
2022/01/21 15:42:26;;;;;;;0.82;0.82;;;;;;;2.55;76.05;100345.78;4928619;29;20114;-67
2022/01/21 15:44:54;;;;;;;0.70;0.70;;;;;;;2.49;77.98;100344.69;4934686;29;20032;-67
2022/01/21 15:47:19;;;;;;;0.57;0.57;;;;;;;2.47;77.95;100346.31;4934637;29;20477;-67
2022/01/21 15:49:46;;;;;;;0.82;0.82;;;;;;;2.40;76.57;100342.63;4932845;29;20045;-67
2022/01/21 15:52:12;;;;;;;1.65;1.40;;;;;;;2.48;76.33;100341.25;4926751;29;20103;-67
2022/01/21 15:54:38;;;;;;;1.35;1.17;;;;;;;2.44;76.87;100341.06;4934720;29;20466;-68
2022/01/21 15:57:05;;;;;;;1.42;1.33;;;;;;;2.45;77.82;100340.25;4926996;29;20385;-66
2022/01/21 15:59:32;;;;;;;0.60;0.60;;;;;;;2.51;76.72;100348.16;4921977;29;20091;-66
2022/01/21 16:01:57;;;;;;;1.05;0.75;;;;;;;2.46;77.70;100347.97;4914316;29;20088;-65
2022/01/21 16:04:23;;;;;;;0.90;0.90;;;;;;;2.43;77.58;100349.56;4938027;29;20031;-65
2022/01/21 16:06:49;;;;;;;1.13;1.00;;;;;;;2.47;76.61;100349.75;4915412;29;20054;-66
2022/01/21 16:09:15;;;;;;;0.70;0.70;;;;;;;2.42;77.33;100353.81;4915717;29;20031;-66
2022/01/21 16:11:40;;;;;;;2.50;1.52;;;;;;;2.34;78.01;100355.19;4922628;29;20028;-66
2022/01/21 16:14:06;;;;;;;1.77;1.67;;;;;;;2.47;77.90;100359.13;4915546;29;20087;-67
2022/01/21 16:16:31;;;;;;;1.08;1.08;;;;;;;2.28;78.00;100360.94;4915260;29;20032;-68
2022/01/21 16:18:57;;;;;;;0.90;0.90;;;;;;;2.15;79.06;100357.81;4915651;29;20028;-68
2022/01/21 16:21:23;;;;;;;0.60;0.60;;;;;;;2.08;79.35;100366.91;4915667;29;20099;-68
2022/01/21 16:23:49;;;;;;;1.45;1.45;;;;;;;2.38;79.11;100356.19;4910246;29;20020;-68
2022/01/21 16:26:15;;;;;;;3.60;2.60;;;;;;;2.24;77.88;100358.19;4913995;29;20107;-68
2022/01/21 16:28:40;;;;;;;4.43;3.70;;;;;;;2.39;78.96;100361.34;4915546;29;20028;-69